Ogdensburg, New Jersey
Current Conditions -  °F | °C
As of 10:10 AM on Thursday 30 Oct 2014 (Local Time) from KFWN Reporting Station
Scattered Clouds Scattered Clouds  
Wind Chill: 43°   Ceiling: Unl
Heat Index: 46°   Visibility: 10mi
Dew Point: 44°   Wind: 6mph
Humidity: 93%   Direction: 200°SSW
Pressure: 30.01"   Gusts: NA
Location:  41.08°N, 74.59°W
Report Text: KFWN 301410Z AUTO 20005KT 10SM SCT002 08/07 A3001 RMK AO2 T00780067
Loading
Personal Weather Stations






























Interactive Weather Map New forecast layout! Learn more

10-Day Weather Forecast

Advertisements
Track Severe Weather on mobile